createdAt,value
2018-12-20T00:00:45.027Z,99996.14
2018-12-20T00:03:15.414Z,99996.66
2018-12-20T00:05:44.073Z,99992.38
2018-12-20T00:08:12.735Z,99989.74
2018-12-20T00:10:41.215Z,99985.30
2018-12-20T00:13:09.747Z,99991.83
2018-12-20T00:15:38.367Z,99995.34
2018-12-20T00:18:07.040Z,99991.38
2018-12-20T00:20:35.703Z,99990.33
2018-12-20T00:23:04.338Z,99990.12
2018-12-20T00:25:32.810Z,99993.28
2018-12-20T00:28:01.310Z,99996.14
2018-12-20T00:30:29.838Z,99983.45
2018-12-20T00:32:58.405Z,99993.95
2018-12-20T00:35:27.034Z,99990.33
2018-12-20T00:37:55.469Z,99995.34
2018-12-20T00:40:24.037Z,99993.28
2018-12-20T00:42:52.588Z,99984.19
2018-12-20T00:45:21.089Z,99983.31
2018-12-20T00:47:49.431Z,99994.09
2018-12-20T00:50:18.484Z,99984.05
2018-12-20T00:52:47.110Z,99983.31
2018-12-20T00:55:15.895Z,99991.77
2018-12-20T00:57:44.431Z,99986.37
2018-12-20T01:00:13.015Z,99983.01
2018-12-20T01:02:42.689Z,99986.97
2018-12-20T01:05:11.208Z,99989.98
2018-12-20T01:07:39.750Z,99993.64
2018-12-20T01:10:08.204Z,99992.63
2018-12-20T01:12:36.652Z,99998.43
2018-12-20T01:15:05.740Z,99989.40
2018-12-20T01:17:38.117Z,99992.25
2018-12-20T01:20:08.798Z,99990.51
2018-12-20T01:22:37.381Z,99992.32
2018-12-20T01:25:05.942Z,99996.34
2018-12-20T01:27:34.496Z,99992.11
2018-12-20T01:30:03.056Z,100001.80
2018-12-20T01:32:31.934Z,99996.52
2018-12-20T01:35:00.416Z,99999.89
2018-12-20T01:37:29.013Z,100001.80
2018-12-20T01:39:57.386Z,100002.39
2018-12-20T01:42:26.186Z,100007.22
2018-12-20T01:44:55.616Z,100010.88
2018-12-20T01:47:23.994Z,100005.77
2018-12-20T01:49:52.559Z,100009.73
2018-12-20T01:52:21.069Z,100002.61
2018-12-20T01:54:49.740Z,100003.92
2018-12-20T01:57:18.777Z,100004.66
2018-12-20T01:59:47.320Z,100006.70
2018-12-20T02:02:15.948Z,100004.97
2018-12-20T02:04:44.651Z,100001.22
2018-12-20T02:07:13.291Z,100000.11
2018-12-20T02:09:43.955Z,99998.27
2018-12-20T02:12:14.247Z,99999.09
2018-12-20T02:14:42.583Z,100007.75
2018-12-20T02:17:10.938Z,100001.15
2018-12-20T02:19:39.315Z,99996.08
2018-12-20T02:22:07.874Z,99991.59
2018-12-20T02:24:36.410Z,99994.48
2018-12-20T02:27:04.835Z,99991.46
2018-12-20T02:29:33.294Z,99997.99
2018-12-20T02:32:01.854Z,99994.55
2018-12-20T02:34:30.306Z,99992.36
2018-12-20T02:36:58.710Z,99990.14
2018-12-20T02:39:27.027Z,99998.14
2018-12-20T02:41:55.390Z,99987.75
2018-12-20T02:44:23.804Z,99994.11
2018-12-20T02:46:52.705Z,99994.03
2018-12-20T02:49:21.238Z,99985.25
2018-12-20T02:51:49.794Z,99982.89
2018-12-20T02:54:18.264Z,99985.53
2018-12-20T02:56:46.758Z,99981.81
2018-12-20T02:59:15.362Z,99973.81
2018-12-20T03:01:43.784Z,99972.50
2018-12-20T03:04:12.406Z,99965.90
2018-12-20T03:06:40.847Z,99967.22
2018-12-20T03:09:10.056Z,99963.33
2018-12-20T03:11:38.585Z,99973.89
2018-12-20T03:14:07.129Z,99961.42
2018-12-20T03:16:35.761Z,99969.86
2018-12-20T03:19:04.220Z,99961.35
2018-12-20T03:21:32.861Z,99963.68
2018-12-20T03:24:01.689Z,99957.08
2018-12-20T03:26:30.094Z,99971.91
2018-12-20T03:28:58.572Z,99966.05
2018-12-20T03:31:27.795Z,99968.61
2018-12-20T03:33:56.422Z,99964.34
2018-12-20T03:36:24.792Z,99959.58
2018-12-20T03:38:53.984Z,99954.30
2018-12-20T03:41:22.477Z,99957.67
2018-12-20T03:43:50.882Z,99953.44
2018-12-20T03:46:19.308Z,99954.76
2018-12-20T03:48:47.861Z,99954.45
2018-12-20T03:51:16.432Z,99953.37
2018-12-20T03:53:44.869Z,99954.38
2018-12-20T03:56:13.341Z,99953.58
2018-12-20T03:58:42.136Z,99953.30
2018-12-20T04:01:10.521Z,99949.34
2018-12-20T04:03:38.950Z,99946.39
2018-12-20T04:06:07.443Z,99941.70
2018-12-20T04:08:35.869Z,99951.91
2018-12-20T04:11:04.304Z,99943.16
2018-12-20T04:13:32.634Z,99946.84
2018-12-20T04:16:01.235Z,99949.92
2018-12-20T04:18:30.110Z,99943.33
2018-12-20T04:20:58.689Z,99935.41
2018-12-20T04:23:27.139Z,99931.39
2018-12-20T04:25:55.588Z,99936.14
2018-12-20T04:28:24.216Z,99937.39
2018-12-20T04:30:53.122Z,99938.99
2018-12-20T04:33:21.917Z,99940.03
2018-12-20T04:35:50.277Z,99932.05
2018-12-20T04:38:18.838Z,99948.02
2018-12-20T04:40:47.450Z,99937.46
2018-12-20T04:43:16.083Z,99933.71
2018-12-20T04:45:46.778Z,99930.80
2018-12-20T04:48:15.890Z,99929.41
2018-12-20T04:50:44.322Z,99929.09
2018-12-20T04:53:12.741Z,99925.45
2018-12-20T04:55:41.105Z,99933.29
2018-12-20T04:58:09.677Z,99923.23
2018-12-20T05:00:40.395Z,99920.31
2018-12-20T05:03:08.632Z,99923.16
2018-12-20T05:05:37.192Z,99922.66
2018-12-20T05:08:05.552Z,99922.36
2018-12-20T05:10:33.940Z,99924.78
2018-12-20T05:13:02.374Z,99923.67
2018-12-20T05:15:30.805Z,99927.35
2018-12-20T05:17:59.323Z,99931.30
2018-12-20T05:20:27.929Z,99935.27
2018-12-20T05:22:56.460Z,99938.11
2018-12-20T05:25:24.802Z,99933.63
2018-12-20T05:27:53.305Z,99927.56
2018-12-20T05:30:21.735Z,99916.63
2018-12-20T05:32:50.333Z,99926.09
2018-12-20T05:35:19.089Z,99937.97
2018-12-20T05:37:47.634Z,99941.84
2018-12-20T05:40:16.171Z,99947.13
2018-12-20T05:42:44.646Z,99946.01
2018-12-20T05:45:13.073Z,99953.84
2018-12-20T05:47:41.540Z,99955.31
2018-12-20T05:50:10.247Z,99956.42
2018-12-20T05:52:38.659Z,99961.33
2018-12-20T05:55:07.041Z,99958.69
2018-12-20T05:57:35.409Z,99951.84
2018-12-20T06:00:05.983Z,99955.92
2018-12-20T06:02:34.740Z,99952.17
2018-12-20T06:05:03.726Z,99951.75
2018-12-20T06:07:34.151Z,99949.47
2018-12-20T06:10:02.483Z,99953.48
2018-12-20T06:12:30.889Z,99951.81
2018-12-20T06:14:59.334Z,99933.77
2018-12-20T06:17:28.037Z,99941.99
2018-12-20T06:19:56.615Z,99944.84
2018-12-20T06:22:25.229Z,99949.59
2018-12-20T06:24:53.728Z,99948.87
2018-12-20T06:27:22.161Z,99950.42
2018-12-20T06:29:50.502Z,99950.35
2018-12-20T06:32:18.883Z,99945.88
2018-12-20T06:34:47.349Z,99944.77
2018-12-20T06:37:15.728Z,99943.17
2018-12-20T06:39:44.093Z,99942.85
2018-12-20T06:42:12.501Z,99949.23
2018-12-20T06:44:40.863Z,99948.44
2018-12-20T06:47:09.871Z,99947.27
2018-12-20T06:49:38.220Z,99946.75
2018-12-20T06:52:06.637Z,99937.07
2018-12-20T06:54:35.008Z,99943.45
2018-12-20T06:57:03.386Z,99937.59
2018-12-20T06:59:31.740Z,99949.53
2018-12-20T07:02:00.146Z,99948.00
2018-12-20T07:04:28.508Z,99948.00
2018-12-20T07:06:56.835Z,99946.55
2018-12-20T07:09:25.186Z,99951.52
2018-12-20T07:11:53.678Z,99948.95
2018-12-20T07:14:22.155Z,99948.22
2018-12-20T07:16:50.483Z,99952.98
2018-12-20T07:19:18.881Z,99957.32
2018-12-20T07:21:49.619Z,99952.63
2018-12-20T07:24:18.081Z,99957.18
2018-12-20T07:26:46.953Z,99948.02
2018-12-20T07:29:16.544Z,99952.05
2018-12-20T07:31:45.080Z,99949.69
2018-12-20T07:34:13.487Z,99952.47
2018-12-20T07:36:41.834Z,99954.03
2018-12-20T07:39:10.235Z,99957.39
2018-12-20T07:41:39.345Z,99963.02
2018-12-20T07:44:07.722Z,99951.91
2018-12-20T07:46:37.937Z,99955.94
2018-12-20T07:49:06.624Z,99956.59
2018-12-20T07:51:34.962Z,99959.45
2018-12-20T07:54:03.297Z,99962.16
2018-12-20T07:56:31.655Z,99959.06
2018-12-20T07:58:59.992Z,99952.91
2018-12-20T08:01:28.440Z,99956.08
2018-12-20T08:03:56.773Z,99951.31
2018-12-20T08:06:25.179Z,99956.53
2018-12-20T08:08:53.557Z,99961.05
2018-12-20T08:11:21.899Z,99968.16
2018-12-20T08:13:50.240Z,99962.88
2018-12-20T08:16:18.579Z,99964.52
2018-12-20T08:18:46.962Z,99961.63
2018-12-20T08:21:15.290Z,99961.95
2018-12-20T08:23:43.728Z,99965.08
2018-12-20T08:26:12.683Z,99965.59
2018-12-20T08:28:41.017Z,99960.91
2018-12-20T08:31:09.379Z,99966.25
2018-12-20T08:33:37.695Z,99964.72
2018-12-20T08:36:06.044Z,99963.47
2018-12-20T08:38:34.380Z,99966.91
2018-12-20T08:41:02.801Z,99969.48
2018-12-20T08:43:31.394Z,99967.95
2018-12-20T08:45:59.780Z,99969.41
2018-12-20T08:48:28.122Z,99971.24
2018-12-20T08:50:56.429Z,99973.13
2018-12-20T08:53:24.775Z,99972.91
2018-12-20T08:55:53.194Z,99973.50
2018-12-20T08:58:21.554Z,99975.34
2018-12-20T09:00:50.107Z,99982.01
2018-12-20T09:03:18.523Z,99987.81
2018-12-20T09:05:46.895Z,99984.65
2018-12-20T09:08:15.225Z,99978.33
2018-12-20T09:10:43.861Z,99983.61
2018-12-20T09:13:12.188Z,99982.01
2018-12-20T09:15:40.639Z,99981.86
2018-12-20T09:18:08.980Z,99983.61
2018-12-20T09:20:37.338Z,99979.44
2018-12-20T09:23:05.690Z,99980.82
2018-12-20T09:25:34.050Z,99984.78
2018-12-20T09:28:02.451Z,99983.91
2018-12-20T09:30:30.976Z,99976.34
2018-12-20T09:32:59.390Z,99979.94
2018-12-20T09:35:27.756Z,99980.30
2018-12-20T09:37:56.115Z,99980.37
2018-12-20T09:40:24.528Z,99969.38
2018-12-20T09:42:52.903Z,99974.66
2018-12-20T09:45:21.285Z,99966.87
2018-12-20T09:47:53.390Z,99970.44
2018-12-20T09:50:21.739Z,99964.57
2018-12-20T09:52:50.112Z,99960.09
2018-12-20T09:55:18.467Z,99961.50
2018-12-20T09:57:46.876Z,99960.00
2018-12-20T10:00:15.537Z,99951.25
2018-12-20T10:02:43.939Z,99958.38
2018-12-20T10:05:12.319Z,99957.06
2018-12-20T10:07:40.701Z,99949.04
2018-12-20T10:10:09.075Z,99950.86
2018-12-20T10:12:37.456Z,99950.48
2018-12-20T10:15:06.718Z,99945.08
2018-12-20T10:17:35.128Z,99942.71
2018-12-20T10:20:03.823Z,99944.89
2018-12-20T10:22:32.158Z,99943.58
2018-12-20T10:25:00.496Z,99944.73
2018-12-20T10:27:31.543Z,99939.03
2018-12-20T10:29:59.377Z,99930.08
2018-12-20T10:32:27.717Z,99935.64
2018-12-20T10:34:56.100Z,99926.83
2018-12-20T10:37:24.432Z,99928.14
2018-12-20T10:39:52.801Z,99923.38
2018-12-20T10:42:21.187Z,99922.70
2018-12-20T10:44:49.572Z,99917.53
2018-12-20T10:47:28.777Z,99909.61
2018-12-20T10:49:54.676Z,99913.41
2018-12-20T10:52:23.028Z,99912.36
2018-12-20T10:54:51.615Z,99904.86
2018-12-20T10:57:20.054Z,99909.83
2018-12-20T10:59:48.436Z,99903.34
2018-12-20T11:02:22.443Z,99900.26
2018-12-20T11:04:56.412Z,99900.42
2018-12-20T11:07:30.749Z,99892.82
2018-12-20T11:10:04.637Z,99895.08
2018-12-20T11:12:38.654Z,99893.06
2018-12-20T11:15:07.490Z,99889.42
2018-12-20T11:17:37.552Z,99887.08
2018-12-20T11:20:06.606Z,99889.01
2018-12-20T11:22:34.988Z,99880.81
2018-12-20T11:25:03.787Z,99883.52
2018-12-20T11:27:32.947Z,99883.69
2018-12-20T11:30:01.380Z,99878.31
2018-12-20T11:32:29.859Z,99887.95
2018-12-20T11:34:58.198Z,99880.53
2018-12-20T11:37:26.587Z,99882.83
2018-12-20T11:39:59.398Z,99874.61
2018-12-20T11:42:25.275Z,99869.89
2018-12-20T11:44:53.680Z,99873.44
2018-12-20T11:47:27.254Z,99880.05
2018-12-20T11:49:55.590Z,99872.59
2018-12-20T11:52:23.928Z,99877.27
2018-12-20T11:54:54.229Z,99875.23
2018-12-20T11:57:22.742Z,99875.50
2018-12-20T11:59:51.131Z,99871.58
2018-12-20T12:02:24.471Z,99866.41
2018-12-20T12:04:50.038Z,99861.86
2018-12-20T12:07:18.611Z,99865.48
2018-12-20T12:09:47.091Z,99865.34
2018-12-20T12:12:16.223Z,99859.61
2018-12-20T12:14:44.699Z,99856.92
2018-12-20T12:17:13.042Z,99861.87
2018-12-20T12:19:41.369Z,99866.86
2018-12-20T12:22:09.899Z,99871.00
2018-12-20T12:24:38.213Z,99866.63
2018-12-20T12:27:06.596Z,99868.23
2018-12-20T12:29:35.107Z,99860.54
2018-12-20T12:32:03.523Z,99865.70
2018-12-20T12:34:31.903Z,99865.70
2018-12-20T12:37:00.266Z,99863.14
2018-12-20T12:39:28.859Z,99867.34
2018-12-20T12:41:57.179Z,99864.69
2018-12-20T12:44:25.539Z,99871.17
2018-12-20T12:46:53.886Z,99872.86
2018-12-20T12:49:24.054Z,99865.08
2018-12-20T12:51:53.421Z,99857.80
2018-12-20T12:54:21.928Z,99866.72
2018-12-20T12:56:50.263Z,99863.55
2018-12-20T12:59:18.586Z,99865.92
2018-12-20T13:01:46.913Z,99873.34
2018-12-20T13:04:15.241Z,99864.64
2018-12-20T13:06:43.587Z,99870.95
2018-12-20T13:09:12.003Z,99879.87
2018-12-20T13:11:40.373Z,99876.08
2018-12-20T13:14:08.694Z,99871.54
2018-12-20T13:16:37.039Z,99882.80
2018-12-20T13:19:05.368Z,99875.86
2018-12-20T13:21:33.781Z,99877.80
2018-12-20T13:24:02.167Z,99881.47
2018-12-20T13:26:30.503Z,99882.61
2018-12-20T13:28:58.919Z,99879.16
2018-12-20T13:31:27.281Z,99881.86
2018-12-20T13:33:55.687Z,99872.02
2018-12-20T13:36:24.011Z,99873.59
2018-12-20T13:38:52.338Z,99871.49
2018-12-20T13:41:20.714Z,99877.18
2018-12-20T13:43:49.044Z,99877.97
2018-12-20T13:46:17.403Z,99873.87
2018-12-20T13:48:45.761Z,99876.52
2018-12-20T13:51:14.116Z,99879.48
2018-12-20T13:53:42.458Z,99883.98
2018-12-20T13:56:10.772Z,99890.03
2018-12-20T13:58:39.121Z,99888.70
2018-12-20T14:01:07.615Z,99882.13
2018-12-20T14:03:36.034Z,99884.03
2018-12-20T14:06:04.359Z,99881.67
2018-12-20T14:08:32.695Z,99880.17
2018-12-20T14:11:01.045Z,99884.90
2018-12-20T14:13:29.484Z,99885.66
2018-12-20T14:15:57.807Z,99882.70
2018-12-20T14:18:30.845Z,99884.59
2018-12-20T14:20:56.444Z,99882.81
2018-12-20T14:23:24.753Z,99882.08
2018-12-20T14:25:53.201Z,99877.03
2018-12-20T14:28:21.566Z,99875.23
2018-12-20T14:30:50.103Z,99873.98
2018-12-20T14:33:18.526Z,99872.39
2018-12-20T14:35:46.892Z,99877.65
2018-12-20T14:38:15.298Z,99873.95
2018-12-20T14:40:43.616Z,99875.23
2018-12-20T14:43:12.346Z,99881.37
2018-12-20T14:45:40.689Z,99885.34
2018-12-20T14:48:10.954Z,99887.99
2018-12-20T14:50:39.338Z,99884.50
2018-12-20T14:53:07.706Z,99883.17
2018-12-20T14:55:36.033Z,99890.37
2018-12-20T14:58:04.378Z,99887.95
2018-12-20T15:00:32.758Z,99889.57
2018-12-20T15:03:01.146Z,99899.07
2018-12-20T15:05:29.523Z,99897.75
2018-12-20T15:07:57.992Z,99885.07
2018-12-20T15:10:26.331Z,99893.50
2018-12-20T15:12:54.785Z,99894.53
2018-12-20T15:15:23.135Z,99896.61
2018-12-20T15:17:51.510Z,99896.11
2018-12-20T15:20:19.835Z,99902.73
2018-12-20T15:22:48.327Z,99899.47
2018-12-20T15:25:16.676Z,99899.25
2018-12-20T15:27:45.144Z,99904.81
2018-12-20T15:30:13.510Z,99906.66
2018-12-20T15:32:41.956Z,99905.61
2018-12-20T15:35:10.371Z,99905.88
2018-12-20T15:37:38.760Z,99909.36
2018-12-20T15:40:07.951Z,99911.13
2018-12-20T15:42:36.305Z,99912.71
2018-12-20T15:45:06.295Z,99915.36
2018-12-20T15:47:34.683Z,99916.34
2018-12-20T15:50:03.740Z,99920.54
2018-12-20T15:52:32.099Z,99918.19
2018-12-20T15:55:00.442Z,99923.19
2018-12-20T15:57:28.803Z,99922.34
2018-12-20T15:59:57.150Z,99921.77
2018-12-20T16:02:25.507Z,99927.59
2018-12-20T16:04:53.948Z,99920.17
2018-12-20T16:07:22.286Z,99930.29
2018-12-20T16:09:50.639Z,99924.20
2018-12-20T16:12:19.084Z,99928.16
2018-12-20T16:14:47.440Z,99929.93
2018-12-20T16:17:15.792Z,99930.95
2018-12-20T16:19:44.132Z,99925.38
2018-12-20T16:22:12.487Z,99925.38
2018-12-20T16:24:40.862Z,99929.22
2018-12-20T16:27:09.320Z,99927.46
2018-12-20T16:29:37.617Z,99923.72
2018-12-20T16:32:06.142Z,99923.26
2018-12-20T16:34:34.462Z,99930.68
2018-12-20T16:37:02.827Z,99929.84
2018-12-20T16:39:31.215Z,99927.19
2018-12-20T16:41:59.543Z,99929.49
2018-12-20T16:44:27.979Z,99932.09
2018-12-20T16:46:56.359Z,99933.20
2018-12-20T16:49:24.705Z,99927.78
2018-12-20T16:51:53.104Z,99929.62
2018-12-20T16:54:21.448Z,99927.51
2018-12-20T16:56:49.876Z,99936.55
2018-12-20T16:59:18.259Z,99933.91
2018-12-20T17:01:46.793Z,99930.95
2018-12-20T17:04:15.135Z,99933.91
2018-12-20T17:06:43.690Z,99935.72
2018-12-20T17:09:12.023Z,99939.16
2018-12-20T17:11:40.447Z,99943.13
2018-12-20T17:14:08.813Z,99936.43
2018-12-20T17:16:37.208Z,99938.33
2018-12-20T17:19:05.635Z,99937.26
2018-12-20T17:21:34.074Z,99934.35
2018-12-20T17:24:02.468Z,99927.73
2018-12-20T17:26:31.060Z,99930.68
2018-12-20T17:28:59.401Z,99934.35
2018-12-20T17:31:28.444Z,99936.78
2018-12-20T17:33:57.177Z,99936.25
2018-12-20T17:36:25.583Z,99939.47
2018-12-20T17:38:53.920Z,99944.55
2018-12-20T17:41:22.354Z,99937.17
2018-12-20T17:43:50.782Z,99939.04
2018-12-20T17:46:19.200Z,99938.54
2018-12-20T17:48:47.564Z,99934.04
2018-12-20T17:51:15.960Z,99939.61
2018-12-20T17:53:44.452Z,99935.59
2018-12-20T17:56:12.831Z,99938.81
2018-12-20T17:58:41.213Z,99934.61
2018-12-20T18:01:09.587Z,99930.86
2018-12-20T18:03:38.047Z,99939.38
2018-12-20T18:06:06.475Z,99936.25
2018-12-20T18:08:34.921Z,99938.86
2018-12-20T18:11:03.308Z,99939.38
2018-12-20T18:13:31.635Z,99944.45
2018-12-20T18:15:59.972Z,99946.85
2018-12-20T18:18:28.607Z,99953.77
2018-12-20T18:20:56.925Z,99950.87
2018-12-20T18:23:25.895Z,99952.23
2018-12-20T18:25:55.271Z,99953.34
2018-12-20T18:28:24.797Z,99957.31
2018-12-20T18:30:54.152Z,99951.22
2018-12-20T18:33:23.829Z,99953.64
2018-12-20T18:35:53.350Z,99954.44
2018-12-20T18:38:23.032Z,99956.33
2018-12-20T18:40:52.555Z,99958.77
2018-12-20T18:43:22.266Z,99955.37
2018-12-20T18:45:51.551Z,99959.64
2018-12-20T18:48:19.883Z,99960.67
2018-12-20T18:50:48.234Z,99963.05
2018-12-20T18:53:16.603Z,99960.40
2018-12-20T18:55:45.007Z,99958.06
2018-12-20T18:58:13.367Z,99958.31
2018-12-20T19:00:41.840Z,99958.31
2018-12-20T19:03:10.240Z,99955.67
2018-12-20T19:05:38.565Z,99957.83
2018-12-20T19:08:06.980Z,99958.15
2018-12-20T19:10:35.735Z,99955.75
2018-12-20T19:13:04.074Z,99951.20
2018-12-20T19:15:32.447Z,99963.13
2018-12-20T19:18:00.852Z,99960.75
2018-12-20T19:20:29.201Z,99966.36
2018-12-20T19:22:57.565Z,99969.23
2018-12-20T19:25:25.865Z,99969.76
2018-12-20T19:27:54.663Z,99966.62
2018-12-20T19:30:24.196Z,99962.37
2018-12-20T19:32:52.768Z,99959.69
2018-12-20T19:35:21.199Z,99955.67
2018-12-20T19:37:50.581Z,99960.40
2018-12-20T19:40:18.955Z,99959.11
2018-12-20T19:42:47.863Z,99961.54
2018-12-20T19:45:17.527Z,99955.45
2018-12-20T19:47:47.012Z,99961.05
2018-12-20T19:50:16.314Z,99957.39
2018-12-20T19:52:45.986Z,99965.69
2018-12-20T19:55:15.455Z,99967.62
2018-12-20T19:57:45.185Z,99971.73
2018-12-20T20:00:15.176Z,99966.55
2018-12-20T20:02:45.060Z,99968.70
2018-12-20T20:05:14.809Z,99962.34
2018-12-20T20:07:44.805Z,99957.88
2018-12-20T20:10:14.171Z,99958.94
2018-12-20T20:12:43.650Z,99963.52
2018-12-20T20:15:16.661Z,99969.63
2018-12-20T20:17:44.836Z,99963.67
2018-12-20T20:20:14.618Z,99971.22
2018-12-20T20:22:44.106Z,99970.23
2018-12-20T20:25:13.571Z,99971.52
2018-12-20T20:27:42.885Z,99965.16
2018-12-20T20:30:13.498Z,99963.64
2018-12-20T20:32:42.052Z,99963.80
2018-12-20T20:35:10.408Z,99966.86
2018-12-20T20:37:39.008Z,99964.16
2018-12-20T20:40:08.276Z,99967.31
2018-12-20T20:42:36.659Z,99958.30
2018-12-20T20:45:06.191Z,99961.17
2018-12-20T20:47:34.565Z,99962.84
2018-12-20T20:50:03.827Z,99958.37
2018-12-20T20:52:32.185Z,99950.41
2018-12-20T20:55:00.689Z,99952.63
2018-12-20T20:57:29.015Z,99950.05
2018-12-20T20:59:57.560Z,99951.50
2018-12-20T21:02:26.113Z,99951.20
2018-12-20T21:04:54.525Z,99954.19
2018-12-20T21:07:22.911Z,99960.86
2018-12-20T21:09:51.274Z,99953.77
2018-12-20T21:12:22.948Z,99956.19
2018-12-20T21:14:52.607Z,99948.63
2018-12-20T21:17:20.509Z,99948.80
2018-12-20T21:19:50.387Z,99951.02
2018-12-20T21:22:18.847Z,99945.57
2018-12-20T21:24:47.173Z,99953.80
2018-12-20T21:27:17.410Z,99958.53
2018-12-20T21:29:45.819Z,99958.83
2018-12-20T21:32:14.136Z,99960.95
2018-12-20T21:34:42.475Z,99958.56
2018-12-20T21:37:10.788Z,99960.69
2018-12-20T21:39:39.119Z,99960.21
2018-12-20T21:42:07.495Z,99966.44
2018-12-20T21:44:35.868Z,99960.91
2018-12-20T21:47:04.358Z,99959.03
2018-12-20T21:49:32.684Z,99959.88
2018-12-20T21:52:01.679Z,99967.02
2018-12-20T21:54:30.216Z,99969.39
2018-12-20T21:56:58.601Z,99967.30
2018-12-20T21:59:26.958Z,99970.03
2018-12-20T22:01:55.318Z,99959.96
2018-12-20T22:04:23.827Z,99967.17
2018-12-20T22:06:52.173Z,99960.23
2018-12-20T22:09:20.490Z,99964.45
2018-12-20T22:11:49.574Z,99962.30
2018-12-20T22:14:17.905Z,99964.45
2018-12-20T22:16:46.347Z,99962.80
2018-12-20T22:19:14.877Z,99957.52
2018-12-20T22:21:43.261Z,99961.80
2018-12-20T22:24:11.605Z,99964.72
2018-12-20T22:26:39.931Z,99964.16
2018-12-20T22:29:08.351Z,99968.88
2018-12-20T22:31:36.692Z,99959.61
2018-12-20T22:34:05.093Z,99962.54
2018-12-20T22:36:33.539Z,99962.16
2018-12-20T22:39:01.984Z,99960.51
2018-12-20T22:41:30.445Z,99962.98
2018-12-20T22:43:58.941Z,99959.11
2018-12-20T22:46:27.324Z,99959.61
2018-12-20T22:48:55.731Z,99955.47
2018-12-20T22:51:24.173Z,99959.75
2018-12-20T22:53:52.540Z,99955.23
2018-12-20T22:56:20.886Z,99960.55
2018-12-20T22:58:49.223Z,99959.30
2018-12-20T23:01:17.538Z,99958.13
2018-12-20T23:03:46.017Z,99958.75
2018-12-20T23:06:14.511Z,99955.92
2018-12-20T23:08:43.056Z,99956.98
2018-12-20T23:11:11.814Z,99951.24
2018-12-20T23:13:40.116Z,99954.72
2018-12-20T23:16:08.454Z,99942.81
2018-12-20T23:18:36.787Z,99942.33
2018-12-20T23:21:05.454Z,99933.51
2018-12-20T23:23:33.939Z,99928.98
2018-12-20T23:26:02.287Z,99935.96
2018-12-20T23:28:30.638Z,99934.59
2018-12-20T23:30:58.991Z,99927.15
2018-12-20T23:33:27.336Z,99926.38
2018-12-20T23:35:55.654Z,99929.80
2018-12-20T23:38:23.999Z,99930.27
2018-12-20T23:40:52.326Z,99923.88
2018-12-20T23:43:20.651Z,99927.32
2018-12-20T23:45:48.979Z,99924.13
2018-12-20T23:48:17.303Z,99929.22
2018-12-20T23:50:46.236Z,99925.45
2018-12-20T23:53:14.589Z,99925.45
2018-12-20T23:55:42.904Z,99930.00
2018-12-20T23:58:11.235Z,99927.05
